Time;durP1;ratioP1;P1;durP2;ratioP2;P2;SDS_P1;SDS_P2;PMS_P1;PMS_P2;Temp;Humidity;BMP_temperature;BMP_pressure;BME280_temperature;BME280_humidity;BME280_pressure;Samples;Min_cycle;Max_cycle;Signal;HPM_P1;HPM_P2
2021/07/08 00:00:40;;;;;;;9.80;5.70;;;;;;;27.98;56.11;100743.94;6242589;22;20017;-68
2021/07/08 00:03:08;;;;;;;11.02;5.57;;;;;;;27.98;56.49;100733.09;6243169;22;20051;-69
2021/07/08 00:05:38;;;;;;;13.65;6.05;;;;;;;27.98;56.59;100742.09;6242154;22;20024;-68
2021/07/08 00:08:06;;;;;;;10.55;6.68;;;;;;;28.00;56.36;100740.19;6242839;22;20020;-68
2021/07/08 00:10:40;;;;;;;9.73;5.47;;;;;;;27.96;56.55;100733.16;6242818;22;20020;-68
2021/07/08 00:13:10;;;;;;;10.30;5.88;;;;;;;27.92;56.32;100739.75;6242821;22;20377;-68
2021/07/08 00:15:39;;;;;;;12.73;6.13;;;;;;;27.89;56.94;100730.91;6243306;22;20020;-68
2021/07/08 00:18:09;;;;;;;9.93;5.40;;;;;;;27.87;56.64;100735.53;6242538;22;20434;-68
2021/07/08 00:20:38;;;;;;;9.75;5.57;;;;;;;27.88;56.64;100723.72;6241369;22;20023;-68
2021/07/08 00:23:05;;;;;;;11.45;5.53;;;;;;;27.88;57.27;100737.31;6242603;22;20046;-67
2021/07/08 00:25:35;;;;;;;10.10;5.80;;;;;;;27.88;56.83;100740.88;6243012;22;20094;-68
2021/07/08 00:28:06;;;;;;;10.25;5.80;;;;;;;27.89;57.27;100744.47;6243181;22;20020;-67
2021/07/08 00:30:35;;;;;;;10.27;5.85;;;;;;;27.86;56.86;100744.63;6241935;22;20024;-67
2021/07/08 00:33:03;;;;;;;10.45;5.75;;;;;;;27.83;57.18;100739.41;6243018;22;20012;-67
2021/07/08 00:35:30;;;;;;;13.00;6.28;;;;;;;27.80;57.56;100739.56;6242443;22;20082;-67
2021/07/08 00:37:58;;;;;;;14.70;6.25;;;;;;;27.80;57.38;100731.41;6243695;22;20353;-67
2021/07/08 00:40:26;;;;;;;8.95;5.53;;;;;;;27.79;57.25;100729.66;6242557;22;20020;-68
2021/07/08 00:42:54;;;;;;;10.80;5.82;;;;;;;27.79;57.72;100719.69;6242313;22;20024;-67
2021/07/08 00:45:23;;;;;;;11.73;6.18;;;;;;;27.82;57.15;100732.22;6240540;22;20020;-67
2021/07/08 00:47:52;;;;;;;10.93;6.18;;;;;;;27.85;57.63;100732.03;6242205;22;20509;-67
2021/07/08 00:50:22;;;;;;;10.60;5.65;;;;;;;27.85;57.47;100734.75;6241842;22;20511;-67
2021/07/08 00:52:50;;;;;;;12.13;5.95;;;;;;;27.82;57.31;100732.22;6243418;22;20051;-67
2021/07/08 00:55:17;;;;;;;15.98;5.65;;;;;;;27.82;57.69;100729.50;6241867;22;20059;-66
2021/07/08 00:57:52;;;;;;;11.77;5.60;;;;;;;27.84;58.23;100727.56;6243416;22;20059;-68
2021/07/08 01:00:21;;;;;;;14.10;7.10;;;;;;;27.77;58.06;100727.91;6242944;22;20032;-68
2021/07/08 01:02:52;;;;;;;11.30;5.93;;;;;;;27.77;59.17;100727.91;6241286;22;20070;-67
2021/07/08 01:05:21;;;;;;;8.00;5.50;;;;;;;27.76;59.35;100725.31;6241087;22;20419;-68
2021/07/08 01:07:49;;;;;;;9.93;6.00;;;;;;;27.75;59.14;100721.72;6243154;22;20028;-67
2021/07/08 01:10:17;;;;;;;12.07;5.53;;;;;;;27.74;59.06;100730.81;6241727;22;20008;-67
2021/07/08 01:12:45;;;;;;;10.45;6.03;;;;;;;27.72;59.35;100723.72;6242816;22;20346;-68
2021/07/08 01:15:13;;;;;;;8.48;5.47;;;;;;;27.72;59.93;100716.44;6241749;22;20252;-67
2021/07/08 01:17:42;;;;;;;9.45;5.43;;;;;;;27.71;59.44;100721.94;6242020;22;20082;-68
2021/07/08 01:20:14;;;;;;;11.43;6.28;;;;;;;27.68;59.80;100717.59;6243155;22;20477;-68
2021/07/08 01:22:43;;;;;;;9.32;6.25;;;;;;;27.67;60.09;100721.25;6242354;22;20092;-67
2021/07/08 01:25:14;;;;;;;10.65;6.63;;;;;;;27.67;59.76;100721.25;6241938;22;20008;-68
2021/07/08 01:27:42;;;;;;;13.40;5.97;;;;;;;27.66;59.79;100715.91;6241812;22;20020;-68
2021/07/08 01:30:12;;;;;;;10.73;6.15;;;;;;;27.62;60.42;100712.50;6242186;22;20047;-67
2021/07/08 01:32:40;;;;;;;10.73;5.40;;;;;;;27.60;60.28;100713.53;6242240;22;20016;-68
2021/07/08 01:35:09;;;;;;;11.73;6.43;;;;;;;27.59;60.64;100718.09;6242739;22;20017;-68
2021/07/08 01:37:37;;;;;;;11.95;6.22;;;;;;;27.57;60.37;100714.56;6241526;22;20016;-67
2021/07/08 01:40:09;;;;;;;9.40;5.93;;;;;;;27.55;60.51;100712.94;6242983;22;20020;-66
2021/07/08 01:42:37;;;;;;;11.65;6.43;;;;;;;27.55;60.92;100721.06;6242268;22;20082;-67
2021/07/08 01:45:07;;;;;;;11.85;5.72;;;;;;;27.51;60.61;100714.88;6242511;22;20023;-67
2021/07/08 01:47:35;;;;;;;9.98;5.57;;;;;;;27.50;60.71;100717.72;6242102;22;20020;-68
2021/07/08 01:50:02;;;;;;;10.10;5.63;;;;;;;27.48;61.10;100719.63;6243315;22;20020;-67
2021/07/08 01:52:30;;;;;;;13.18;6.35;;;;;;;27.47;60.49;100721.44;6241920;22;20047;-67
2021/07/08 01:54:57;;;;;;;10.52;5.40;;;;;;;27.46;61.06;100721.53;6242239;22;20019;-67
2021/07/08 01:57:27;;;;;;;11.18;5.57;;;;;;;27.48;61.06;100731.34;6242055;22;20485;-68
2021/07/08 01:59:55;;;;;;;12.13;6.07;;;;;;;27.43;61.03;100713.56;6243517;22;20396;-68
2021/07/08 02:02:22;;;;;;;12.93;5.45;;;;;;;27.48;60.66;100720.50;6243883;22;20349;-68
2021/07/08 02:04:50;;;;;;;11.65;6.43;;;;;;;27.45;60.79;100728.78;6244091;22;20028;-67
2021/07/08 02:07:18;;;;;;;14.50;6.20;;;;;;;27.44;60.76;100723.47;6242131;22;20066;-67
2021/07/08 02:09:45;;;;;;;11.05;6.00;;;;;;;27.44;61.38;100718.88;6244519;22;20055;-68
2021/07/08 02:12:13;;;;;;;11.32;5.50;;;;;;;27.42;61.47;100726.25;6243794;22;20039;-68
2021/07/08 02:14:42;;;;;;;11.45;5.88;;;;;;;27.42;61.36;100720.84;6243978;22;20184;-68
2021/07/08 02:17:10;;;;;;;10.02;5.70;;;;;;;27.41;61.77;100727.22;6244035;22;20008;-67
2021/07/08 02:19:37;;;;;;;13.88;5.70;;;;;;;27.37;61.92;100721.06;6243340;22;20016;-68
2021/07/08 02:22:05;;;;;;;11.18;5.40;;;;;;;27.38;61.55;100724.66;6244205;22;20511;-67
2021/07/08 02:24:33;;;;;;;9.85;5.35;;;;;;;27.35;62.05;100731.13;6244042;22;20044;-68
2021/07/08 02:27:00;;;;;;;10.18;5.45;;;;;;;27.35;61.97;100722.13;6243221;22;20070;-67
2021/07/08 02:29:28;;;;;;;9.85;6.18;;;;;;;27.36;62.42;100723.88;6245141;22;20370;-67
2021/07/08 02:31:58;;;;;;;9.23;6.00;;;;;;;27.36;61.96;100721.16;6243656;22;20012;-67
2021/07/08 02:34:25;;;;;;;17.38;6.70;;;;;;;27.34;62.36;100726.66;6243551;22;20494;-67
2021/07/08 02:36:53;;;;;;;12.98;5.97;;;;;;;27.32;62.58;100719.56;6243774;22;20016;-68
2021/07/08 02:39:21;;;;;;;12.45;5.90;;;;;;;27.31;62.92;100728.66;6244680;22;20074;-67
2021/07/08 02:41:48;;;;;;;13.07;6.20;;;;;;;27.31;62.38;100731.38;6243382;22;20457;-68
2021/07/08 02:44:16;;;;;;;10.85;5.85;;;;;;;27.30;63.10;100735.06;6244010;22;20057;-67
2021/07/08 02:46:43;;;;;;;10.77;5.53;;;;;;;27.28;62.71;100735.16;6243520;22;20053;-67
2021/07/08 02:49:13;;;;;;;13.48;5.80;;;;;;;27.27;63.18;100727.97;6243619;22;20465;-67
2021/07/08 02:51:40;;;;;;;12.00;6.00;;;;;;;27.22;63.53;100734.59;6243732;22;20039;-67
2021/07/08 02:54:08;;;;;;;14.38;5.93;;;;;;;27.21;63.50;100738.25;6243832;22;20020;-67
2021/07/08 02:56:36;;;;;;;12.15;6.13;;;;;;;27.22;63.83;100738.19;6243058;22;20090;-68
2021/07/08 02:59:04;;;;;;;10.40;5.70;;;;;;;27.20;63.83;100725.66;6243875;22;20020;-67
2021/07/08 03:01:32;;;;;;;11.43;5.88;;;;;;;27.20;64.13;100731.97;6243072;22;20074;-66
2021/07/08 03:04:00;;;;;;;10.95;6.43;;;;;;;27.22;63.79;100745.44;6243638;22;20024;-67
2021/07/08 03:06:30;;;;;;;11.15;5.80;;;;;;;27.19;63.58;100735.63;6243335;22;20466;-67
2021/07/08 03:08:58;;;;;;;11.48;6.53;;;;;;;27.18;63.88;100738.41;6242846;22;20024;-67
2021/07/08 03:11:25;;;;;;;11.82;6.07;;;;;;;27.18;63.46;100730.28;6243305;22;20012;-68
2021/07/08 03:13:53;;;;;;;10.57;6.82;;;;;;;27.20;63.75;100736.50;6243876;22;20426;-67
2021/07/08 03:16:21;;;;;;;10.20;5.38;;;;;;;27.18;63.27;100746.53;6243121;22;20101;-67
2021/07/08 03:18:49;;;;;;;11.43;6.40;;;;;;;27.16;64.00;100745.78;6242674;22;20024;-67
2021/07/08 03:21:17;;;;;;;13.52;5.88;;;;;;;27.19;63.57;100732.03;6244026;22;20086;-67
2021/07/08 03:23:46;;;;;;;11.05;6.07;;;;;;;27.22;63.35;100735.47;6243162;22;20020;-67
2021/07/08 03:26:14;;;;;;;20.42;6.60;;;;;;;27.26;63.92;100731.63;6244008;22;20028;-67
2021/07/08 03:28:41;;;;;;;11.32;5.93;;;;;;;27.33;63.53;100741.19;6243974;22;20020;-67
2021/07/08 03:31:09;;;;;;;14.90;5.65;;;;;;;27.37;63.22;100739.19;6242639;22;20016;-67
2021/07/08 03:33:36;;;;;;;11.60;5.65;;;;;;;27.44;63.78;100746.00;6243453;22;20340;-67
2021/07/08 03:36:05;;;;;;;14.20;5.47;;;;;;;27.52;63.10;100742.91;6243870;22;20012;-67
2021/07/08 03:38:33;;;;;;;11.23;4.90;;;;;;;27.61;63.11;100737.00;6242743;22;20031;-67
2021/07/08 03:41:01;;;;;;;8.77;5.22;;;;;;;27.70;62.77;100734.63;6244064;22;20450;-67
2021/07/08 03:43:29;;;;;;;12.13;5.85;;;;;;;27.82;62.06;100735.81;6225247;22;20070;-67
2021/07/08 03:45:56;;;;;;;8.98;4.90;;;;;;;27.93;61.88;100744.22;6237307;22;20020;-67
2021/07/08 03:48:24;;;;;;;10.23;4.90;;;;;;;28.00;61.29;100736.59;6243297;22;20020;-67
2021/07/08 03:50:52;;;;;;;9.70;5.57;;;;;;;28.10;61.23;100746.81;6243690;22;20012;-67
2021/07/08 03:53:19;;;;;;;6.97;4.45;;;;;;;28.19;60.46;100753.63;6242957;22;20469;-66
2021/07/08 03:55:47;;;;;;;10.55;5.22;;;;;;;28.26;60.33;100749.59;6242986;22;20020;-66
2021/07/08 03:58:16;;;;;;;12.98;4.88;;;;;;;28.40;60.72;100752.38;6242271;22;20042;-67
2021/07/08 04:00:45;;;;;;;10.20;5.15;;;;;;;28.55;60.17;100753.31;6243271;22;20020;-67
2021/07/08 04:03:14;;;;;;;10.85;4.75;;;;;;;28.70;59.88;100755.09;6243104;22;20027;-68
2021/07/08 04:05:43;;;;;;;8.32;4.60;;;;;;;28.84;59.14;100748.88;6242695;22;20020;-67
2021/07/08 04:08:11;;;;;;;13.75;4.75;;;;;;;29.02;58.99;100765.91;6242879;22;20070;-67
2021/07/08 04:10:40;;;;;;;10.25;4.40;;;;;;;29.16;58.87;100747.78;6242884;22;20349;-67
2021/07/08 04:13:10;;;;;;;8.88;4.03;;;;;;;29.25;58.46;100769.00;6242473;22;20071;-68
2021/07/08 04:15:40;;;;;;;10.80;3.95;;;;;;;29.37;57.85;100769.22;6243127;22;20024;-68
2021/07/08 04:18:09;;;;;;;9.20;4.60;;;;;;;29.48;57.97;100766.69;6243344;22;20016;-67
2021/07/08 04:20:37;;;;;;;8.27;4.03;;;;;;;29.61;57.37;100771.28;6241958;22;20458;-67
2021/07/08 04:23:05;;;;;;;10.07;4.68;;;;;;;29.73;57.01;100771.50;6242715;22;20392;-67
2021/07/08 04:25:33;;;;;;;9.48;4.47;;;;;;;29.81;57.00;100771.84;6242815;22;20016;-67
2021/07/08 04:28:01;;;;;;;9.30;4.22;;;;;;;29.82;56.80;100777.19;6243021;22;20036;-68
2021/07/08 04:30:29;;;;;;;11.10;4.45;;;;;;;29.96;56.66;100782.66;6224467;22;20087;-68
2021/07/08 04:32:58;;;;;;;7.55;4.22;;;;;;;30.00;56.40;100791.50;6224296;22;20016;-68
2021/07/08 04:35:29;;;;;;;8.07;3.78;;;;;;;30.07;56.07;100782.84;6212327;22;20565;-68
2021/07/08 04:37:57;;;;;;;9.13;3.95;;;;;;;30.20;55.94;100777.47;6236683;22;20095;-68
2021/07/08 04:40:25;;;;;;;10.73;4.43;;;;;;;30.36;55.10;100790.97;6242809;22;20378;-68
2021/07/08 04:42:53;;;;;;;8.27;4.20;;;;;;;30.44;55.41;100802.25;6240801;22;21074;-68
2021/07/08 04:45:21;;;;;;;10.18;4.53;;;;;;;30.45;55.44;100793.09;6243005;22;20008;-68
2021/07/08 04:47:49;;;;;;;10.93;4.47;;;;;;;30.39;55.17;100796.22;6242503;22;20391;-68
2021/07/08 04:50:20;;;;;;;7.97;3.67;;;;;;;30.40;55.54;100797.94;6242544;22;20020;-67
2021/07/08 04:52:48;;;;;;;11.80;4.03;;;;;;;30.29;55.38;100806.84;6242706;22;20016;-69
2021/07/08 04:55:17;;;;;;;9.77;4.43;;;;;;;30.05;56.18;100803.88;6240636;22;20020;-68
2021/07/08 04:57:46;;;;;;;8.93;4.30;;;;;;;30.18;56.06;100805.81;6242824;22;20020;-67
2021/07/08 05:00:15;;;;;;;12.63;4.80;;;;;;;30.11;56.45;100808.03;6241700;22;20020;-68
2021/07/08 05:02:44;;;;;;;7.65;4.20;;;;;;;30.00;56.59;100806.00;6240572;22;20036;-68
2021/07/08 05:05:13;;;;;;;13.93;4.68;;;;;;;30.27;56.37;100813.34;6240522;22;20016;-67
2021/07/08 05:07:44;;;;;;;12.63;4.80;;;;;;;30.17;56.78;100815.81;6242282;22;20044;-68
2021/07/08 05:10:14;;;;;;;8.77;4.78;;;;;;;30.08;56.94;100820.00;6241881;22;20027;-67
2021/07/08 05:12:41;;;;;;;8.73;4.80;;;;;;;30.13;56.42;100816.13;6241252;22;20040;-68
2021/07/08 05:15:12;;;;;;;16.85;5.03;;;;;;;30.00;56.48;100821.47;6241489;22;20023;-68
2021/07/08 05:17:40;;;;;;;7.50;4.28;;;;;;;29.95;56.36;100821.75;6242328;22;20016;-69
2021/07/08 05:20:09;;;;;;;10.23;4.80;;;;;;;29.96;56.17;100820.78;6241900;22;20596;-68
2021/07/08 05:22:38;;;;;;;11.52;4.75;;;;;;;30.24;55.97;100827.19;6240209;22;20024;-68
2021/07/08 05:25:11;;;;;;;10.45;4.68;;;;;;;30.82;55.00;100835.13;6241718;22;20016;-68
2021/07/08 05:27:39;;;;;;;9.50;4.85;;;;;;;31.16;54.23;100825.56;6242296;22;20535;-69
2021/07/08 05:30:08;;;;;;;9.65;4.60;;;;;;;31.49;53.87;100827.78;6242195;22;20454;-68
2021/07/08 05:32:36;;;;;;;12.50;5.38;;;;;;;31.44;53.76;100822.63;6242083;22;20084;-69
2021/07/08 05:35:04;;;;;;;14.95;5.10;;;;;;;31.91;53.65;100838.41;6244049;22;20528;-68
2021/07/08 05:37:32;;;;;;;8.02;4.25;;;;;;;32.67;52.08;100834.69;6243933;22;20051;-68
2021/07/08 05:40:00;;;;;;;8.70;3.90;;;;;;;33.19;50.01;100846.16;6242853;22;20466;-68
2021/07/08 05:42:29;;;;;;;8.43;3.85;;;;;;;33.76;48.47;100837.09;6225977;22;20091;-68
2021/07/08 05:44:58;;;;;;;12.18;4.18;;;;;;;34.19;47.52;100842.75;6243528;22;20016;-68
2021/07/08 05:47:25;;;;;;;9.63;3.90;;;;;;;34.68;45.99;100839.56;6241956;22;20119;-68
2021/07/08 05:49:53;;;;;;;7.55;3.60;;;;;;;35.00;45.69;100830.50;6242604;22;20044;-68
2021/07/08 05:52:21;;;;;;;8.02;3.45;;;;;;;35.14;45.79;100835.69;6242720;22;20020;-69
2021/07/08 05:54:48;;;;;;;10.70;4.15;;;;;;;35.24;44.81;100838.56;6243224;22;20074;-69
2021/07/08 05:57:16;;;;;;;7.32;3.85;;;;;;;35.17;44.29;100827.19;6243614;22;20043;-69
2021/07/08 05:59:45;;;;;;;10.57;4.40;;;;;;;35.02;44.64;100836.72;6244341;22;20032;-68
2021/07/08 06:02:13;;;;;;;10.65;3.97;;;;;;;34.79;45.59;100846.91;6244010;22;20059;-68
2021/07/08 06:04:40;;;;;;;8.98;3.90;;;;;;;33.89;47.00;100835.13;6243690;22;20019;-69
2021/07/08 06:07:08;;;;;;;8.88;4.45;;;;;;;34.00;47.22;100839.75;6243447;22;20066;-68
2021/07/08 06:09:35;;;;;;;7.75;3.90;;;;;;;34.04;46.62;100824.78;6243767;22;20031;-69
2021/07/08 06:12:03;;;;;;;9.70;4.00;;;;;;;34.29;45.91;100835.53;6244025;22;20038;-68
2021/07/08 06:14:31;;;;;;;8.57;3.83;;;;;;;34.51;46.27;100833.75;6244561;22;20020;-68
2021/07/08 06:17:01;;;;;;;6.97;3.80;;;;;;;34.83;45.33;100826.47;6243624;22;20354;-68
2021/07/08 06:19:29;;;;;;;9.75;4.20;;;;;;;34.92;45.07;100831.16;6242154;22;20350;-67
2021/07/08 06:21:57;;;;;;;8.85;4.03;;;;;;;34.78;45.23;100831.47;6243304;22;20523;-68
2021/07/08 06:24:25;;;;;;;9.18;3.70;;;;;;;35.02;43.98;100839.47;6243167;22;20059;-69
2021/07/08 06:26:53;;;;;;;11.70;4.43;;;;;;;34.92;44.09;100846.78;6243866;22;20102;-69
2021/07/08 06:29:20;;;;;;;9.52;4.25;;;;;;;35.22;43.41;100838.69;6244282;22;20397;-68
2021/07/08 06:31:48;;;;;;;12.88;3.90;;;;;;;35.19;42.94;100848.00;6244004;22;20020;-68
2021/07/08 06:34:17;;;;;;;10.55;4.32;;;;;;;35.29;43.24;100852.75;6241368;22;20017;-68
2021/07/08 06:36:44;;;;;;;12.70;4.45;;;;;;;35.54;42.73;100841.34;6244270;22;20020;-68
2021/07/08 06:39:13;;;;;;;9.45;4.20;;;;;;;35.55;42.43;100843.09;6243246;22;20017;-69
2021/07/08 06:41:40;;;;;;;13.00;4.22;;;;;;;35.55;42.18;100852.22;6242389;22;20039;-69
2021/07/08 06:44:11;;;;;;;10.60;4.80;;;;;;;35.65;41.93;100846.78;6242361;22;20461;-68
2021/07/08 06:46:39;;;;;;;9.10;4.05;;;;;;;35.64;41.74;100857.91;6241876;22;20031;-69
2021/07/08 06:49:08;;;;;;;7.72;3.33;;;;;;;35.62;41.72;100844.31;6243244;22;20079;-68
2021/07/08 06:51:37;;;;;;;10.25;4.57;;;;;;;35.71;42.02;100862.75;6243316;22;20019;-69
2021/07/08 06:54:06;;;;;;;8.43;4.20;;;;;;;35.62;41.88;100855.31;6243473;22;20027;-68
2021/07/08 06:56:33;;;;;;;10.27;4.22;;;;;;;35.53;41.80;100856.97;6242535;22;20094;-70
2021/07/08 06:59:01;;;;;;;10.75;4.28;;;;;;;35.38;41.45;100860.19;6243906;22;20020;-68
2021/07/08 07:01:28;;;;;;;8.10;3.72;;;;;;;35.51;41.43;100856.22;6242727;22;20066;-69
2021/07/08 07:03:56;;;;;;;9.60;3.85;;;;;;;35.85;41.01;100864.28;6243290;22;20035;-69
2021/07/08 07:06:23;;;;;;;10.80;3.70;;;;;;;36.16;40.21;100863.31;6243357;22;20020;-68
2021/07/08 07:08:52;;;;;;;7.93;3.20;;;;;;;36.30;39.20;100864.84;6242294;22;20040;-69
2021/07/08 07:11:20;;;;;;;12.35;3.70;;;;;;;36.52;39.00;100880.25;6242931;22;20824;-69
2021/07/08 07:13:48;;;;;;;9.27;3.80;;;;;;;36.92;38.45;100877.47;6243338;22;20035;-69
2021/07/08 07:16:15;;;;;;;9.32;3.13;;;;;;;36.98;38.61;100872.25;6242989;22;20403;-69
2021/07/08 07:18:43;;;;;;;7.45;3.45;;;;;;;36.77;39.11;100877.00;6242580;22;20020;-68
2021/07/08 07:21:11;;;;;;;11.80;3.55;;;;;;;36.77;39.15;100881.63;6234629;22;20063;-69
2021/07/08 07:23:46;;;;;;;8.68;3.63;;;;;;;36.79;38.98;100887.88;6242094;22;20026;-67
2021/07/08 07:26:21;;;;;;;9.75;3.25;;;;;;;36.87;38.98;100890.81;6237537;22;20545;-68
2021/07/08 07:28:50;;;;;;;9.70;3.13;;;;;;;37.11;38.60;100883.03;6245579;22;20619;-68
2021/07/08 07:31:18;;;;;;;9.23;3.40;;;;;;;37.07;38.61;100889.81;6239885;22;20020;-68
2021/07/08 07:33:46;;;;;;;10.10;3.05;;;;;;;37.06;38.29;100891.69;6240742;22;20393;-68
2021/07/08 07:36:14;;;;;;;8.13;3.10;;;;;;;37.15;38.28;100887.25;6241358;22;20020;-69
2021/07/08 07:38:43;;;;;;;10.05;3.03;;;;;;;37.27;38.05;100890.72;6242651;22;20020;-69
2021/07/08 07:41:11;;;;;;;9.60;3.72;;;;;;;37.20;38.14;100886.81;6242419;22;20012;-69
2021/07/08 07:43:40;;;;;;;8.25;3.17;;;;;;;37.26;37.64;100880.72;6242142;22;20043;-69
2021/07/08 07:46:08;;;;;;;10.65;3.33;;;;;;;37.02;37.80;100886.63;6242874;22;20016;-69
2021/07/08 07:48:36;;;;;;;11.68;3.58;;;;;;;36.93;37.73;100901.25;6243483;22;20012;-68
2021/07/08 07:51:04;;;;;;;7.38;3.10;;;;;;;36.92;37.62;100900.38;6242508;22;20311;-69
2021/07/08 07:53:32;;;;;;;11.85;3.38;;;;;;;36.92;37.41;100907.75;6242165;22;20053;-69
2021/07/08 07:55:59;;;;;;;9.95;3.22;;;;;;;36.95;37.45;100907.50;6241945;22;20016;-69
2021/07/08 07:58:27;;;;;;;7.03;3.40;;;;;;;36.92;37.77;100914.13;6241441;22;20048;-69
2021/07/08 08:00:57;;;;;;;8.70;3.25;;;;;;;36.99;37.20;100906.19;6241979;22;20042;-69
2021/07/08 08:03:25;;;;;;;8.27;3.13;;;;;;;36.83;37.42;100906.72;6242465;22;20083;-68
2021/07/08 08:08:27;;;;;;;9.95;3.58;;;;;;;36.72;36.73;100920.59;6242478;22;20032;-68
2021/07/08 08:08:46;;;;;;;9.30;3.65;;;;;;;36.87;36.49;100916.44;6241978;22;20028;-69
2021/07/08 08:11:13;;;;;;;9.38;3.42;;;;;;;36.95;36.30;100916.63;6242083;22;20055;-68
2021/07/08 08:13:41;;;;;;;7.40;3.25;;;;;;;37.03;35.59;100921.38;6242961;22;20077;-69
2021/07/08 08:16:10;;;;;;;8.40;3.38;;;;;;;37.16;35.15;100919.25;6243224;22;20019;-69
2021/07/08 08:18:38;;;;;;;6.85;2.83;;;;;;;37.23;35.28;100914.94;6243292;22;20016;-69
2021/07/08 08:21:06;;;;;;;7.72;3.08;;;;;;;37.38;34.98;100927.25;6242093;22;20047;-68
2021/07/08 08:23:34;;;;;;;7.70;2.95;;;;;;;37.35;34.70;100915.69;6240912;22;20024;-68
2021/07/08 08:26:02;;;;;;;6.35;2.90;;;;;;;37.30;35.27;100929.00;6242885;22;20012;-69
2021/07/08 08:28:30;;;;;;;11.57;3.08;;;;;;;37.35;35.12;100923.94;6243761;22;20023;-68
2021/07/08 08:30:57;;;;;;;9.07;3.50;;;;;;;37.55;35.32;100927.56;6242599;22;20054;-68
2021/07/08 08:33:27;;;;;;;8.55;3.05;;;;;;;37.59;35.40;100924.41;6242164;22;20066;-68
2021/07/08 08:35:54;;;;;;;7.72;3.42;;;;;;;37.74;35.16;100933.97;6242430;22;20016;-69
2021/07/08 08:38:22;;;;;;;8.80;3.33;;;;;;;37.95;34.87;100925.47;6242681;22;20465;-68
2021/07/08 08:40:51;;;;;;;10.40;3.28;;;;;;;38.06;34.78;100927.25;6242987;22;20104;-68
2021/07/08 08:43:19;;;;;;;9.05;3.35;;;;;;;38.14;35.00;100924.59;6243036;22;20095;-68
2021/07/08 08:45:48;;;;;;;10.80;3.97;;;;;;;38.05;35.27;100928.25;6242370;22;20062;-69
2021/07/08 08:48:16;;;;;;;9.57;3.40;;;;;;;38.05;35.43;100922.75;6242893;22;20020;-68
2021/07/08 08:50:48;;;;;;;9.57;3.05;;;;;;;38.12;35.08;100932.16;6243449;22;20074;-68
2021/07/08 08:53:17;;;;;;;6.95;2.92;;;;;;;38.14;34.62;100935.63;6242339;22;20484;-69
2021/07/08 08:55:45;;;;;;;10.60;3.85;;;;;;;38.16;34.21;100930.84;6242285;22;20090;-69
2021/07/08 08:58:14;;;;;;;7.50;2.97;;;;;;;38.18;33.64;100924.16;6242467;22;20012;-69
2021/07/08 09:00:44;;;;;;;7.30;2.70;;;;;;;38.10;33.42;100925.91;6242389;22;20017;-69
2021/07/08 09:03:14;;;;;;;6.03;2.63;;;;;;;38.13;33.02;100931.16;6242500;22;20016;-68
2021/07/08 09:05:45;;;;;;;8.68;3.08;;;;;;;38.27;32.91;100941.69;6242257;22;20035;-68
2021/07/08 09:08:20;;;;;;;6.93;3.03;;;;;;;38.35;33.16;100932.66;6240898;22;20036;-68
2021/07/08 09:10:51;;;;;;;5.80;3.30;;;;;;;38.15;33.52;100931.84;6242337;22;20099;-68
2021/07/08 09:13:18;;;;;;;8.25;2.70;;;;;;;37.83;34.34;100929.44;6242113;22;20008;-68
2021/07/08 09:15:46;;;;;;;8.38;2.97;;;;;;;37.69;34.57;100933.50;6242509;22;20520;-68
2021/07/08 09:18:15;;;;;;;11.00;3.58;;;;;;;37.76;34.37;100928.28;6242828;22;20502;-69
2021/07/08 09:20:45;;;;;;;16.15;3.08;;;;;;;37.79;34.09;100923.34;6242082;22;20611;-68
2021/07/08 09:23:16;;;;;;;7.38;3.15;;;;;;;37.87;33.71;100929.00;6242123;22;20016;-68
2021/07/08 09:25:45;;;;;;;9.50;3.70;;;;;;;37.80;34.29;100930.63;6242677;22;20024;-68
2021/07/08 09:28:32;;;;;;;9.02;3.30;;;;;;;37.89;33.59;100929.72;6241537;22;20020;-68
2021/07/08 09:31:04;;;;;;;7.50;2.78;;;;;;;38.07;33.79;100920.72;6243406;22;20027;-69
2021/07/08 09:33:37;;;;;;;9.65;3.47;;;;;;;38.23;33.25;100927.31;6242002;22;20036;-69
2021/07/08 09:36:10;;;;;;;8.27;2.95;;;;;;;38.22;31.97;100921.94;6241848;22;20016;-67
2021/07/08 09:38:38;;;;;;;4.47;2.30;;;;;;;38.09;32.14;100915.91;6242140;22;20024;-68
2021/07/08 09:41:11;;;;;;;8.07;2.70;;;;;;;38.13;31.59;100909.09;6242854;22;20063;-68
2021/07/08 09:43:40;;;;;;;6.70;3.20;;;;;;;38.02;31.52;100910.06;6242036;22;20050;-68
2021/07/08 09:46:08;;;;;;;10.80;2.65;;;;;;;37.99;32.27;100918.66;6242360;22;20017;-68
2021/07/08 09:48:36;;;;;;;5.82;2.90;;;;;;;37.98;32.22;100918.81;6241393;22;20027;-69
2021/07/08 09:51:04;;;;;;;5.25;2.92;;;;;;;38.02;31.80;100925.75;6243712;22;20012;-68
2021/07/08 09:53:48;;;;;;;10.60;3.17;;;;;;;38.06;32.27;100930.88;6242329;22;20040;-69
2021/07/08 09:58:58;;;;;;;9.35;3.55;;;;;;;38.02;32.93;100920.25;6240881;22;20342;-69
2021/07/08 10:01:27;;;;;;;7.35;2.83;;;;;;;38.03;33.17;100913.75;6242366;22;20094;-68
2021/07/08 10:03:56;;;;;;;8.55;3.75;;;;;;;38.02;32.97;100918.34;6242206;22;20026;-69
2021/07/08 10:06:23;;;;;;;9.48;3.45;;;;;;;37.99;33.08;100906.75;6240907;22;20009;-68
2021/07/08 10:08:55;;;;;;;7.32;3.30;;;;;;;38.05;33.00;100908.97;6241869;22;20020;-69
2021/07/08 10:11:23;;;;;;;9.35;3.53;;;;;;;37.97;33.26;100909.66;6241369;22;20032;-69
2021/07/08 10:13:51;;;;;;;8.90;3.10;;;;;;;37.95;33.33;100905.31;6241989;22;20087;-69
2021/07/08 10:16:19;;;;;;;8.20;2.90;;;;;;;37.87;33.66;100917.09;6242827;22;20397;-68
2021/07/08 10:18:48;;;;;;;7.68;3.10;;;;;;;37.67;33.71;100915.41;6242266;22;20027;-68
2021/07/08 10:21:18;;;;;;;7.45;2.58;;;;;;;37.54;33.83;100907.41;6243752;22;20016;-67
2021/07/08 10:23:46;;;;;;;9.20;3.13;;;;;;;37.27;34.24;100894.34;6243904;22;20044;-69
2021/07/08 10:26:17;;;;;;;7.35;3.42;;;;;;;36.75;34.68;100914.84;6244452;22;20417;-69
2021/07/08 10:28:46;;;;;;;8.85;3.47;;;;;;;36.84;34.87;100913.09;6243752;22;20024;-69
2021/07/08 10:31:16;;;;;;;11.07;3.30;;;;;;;36.82;35.26;100910.50;6243997;22;20012;-69
2021/07/08 10:34:09;;;;;;;10.68;3.17;;;;;;;36.82;35.30;100920.66;6243571;22;20036;-69
2021/07/08 10:36:38;;;;;;;10.13;2.90;;;;;;;36.70;35.22;100909.72;6243522;22;20028;-69
2021/07/08 10:39:07;;;;;;;7.32;2.95;;;;;;;36.67;34.87;100903.66;6243662;22;20012;-68
2021/07/08 10:41:53;;;;;;;7.55;3.50;;;;;;;36.69;35.13;100904.38;6243825;22;20070;-69
2021/07/08 10:44:41;;;;;;;10.40;3.55;;;;;;;36.62;34.82;100906.81;6242457;22;20012;-68
2021/07/08 10:47:37;;;;;;;9.25;3.72;;;;;;;36.64;35.60;100906.63;6242876;22;20062;-69
2021/07/08 10:50:08;;;;;;;12.45;3.90;;;;;;;36.49;35.53;100903.44;6243166;22;20027;-69
2021/07/08 10:52:48;;;;;;;10.88;4.13;;;;;;;36.23;36.26;100905.78;6242969;22;20523;-67
2021/07/08 10:55:37;;;;;;;12.30;4.90;;;;;;;36.09;37.26;100900.59;6243928;22;20030;-68
2021/07/08 10:58:08;;;;;;;11.40;4.13;;;;;;;36.30;36.63;100904.19;6239960;22;20016;-66
2021/07/08 11:00:47;;;;;;;10.95;3.72;;;;;;;36.65;36.05;100898.28;6242311;22;20047;-68
2021/07/08 11:03:46;;;;;;;14.30;4.22;;;;;;;36.63;36.14;100903.00;6242129;22;20016;-67
2021/07/08 11:06:22;;;;;;;9.30;4.15;;;;;;;36.54;36.46;100895.63;6242525;22;20082;-68
2021/07/08 11:08:56;;;;;;;10.48;4.53;;;;;;;36.57;36.65;100903.56;6243189;22;20020;-68
2021/07/08 11:12:01;;;;;;;9.90;3.83;;;;;;;36.46;36.65;100898.19;6240568;22;20110;-67
2021/07/08 11:14:44;;;;;;;12.10;4.85;;;;;;;36.31;36.50;100894.94;6242524;22;20043;-66
2021/07/08 11:17:20;;;;;;;10.90;3.75;;;;;;;36.40;36.49;100897.88;6237134;22;20465;-67
2021/07/08 11:19:49;;;;;;;10.43;4.30;;;;;;;36.55;36.58;100899.25;6242056;22;20421;-66
2021/07/08 11:22:34;;;;;;;10.07;4.25;;;;;;;36.77;36.11;100907.28;6242356;22;20051;-67
2021/07/08 11:25:03;;;;;;;10.40;4.10;;;;;;;37.03;35.03;100904.88;6242665;22;20008;-67
2021/07/08 11:27:39;;;;;;;10.68;4.30;;;;;;;37.15;34.61;100905.66;6240006;22;20023;-68
2021/07/08 11:30:30;;;;;;;12.00;4.32;;;;;;;37.18;34.34;100888.81;6240340;22;20436;-67
2021/07/08 11:33:03;;;;;;;11.00;4.22;;;;;;;37.11;34.45;100885.78;6242120;22;20069;-68
2021/07/08 11:35:35;;;;;;;18.25;4.85;;;;;;;37.20;34.30;100901.44;6241704;22;20095;-67